Time;durP1;ratioP1;P1;durP2;ratioP2;P2;SDS_P1;SDS_P2;PMS_P1;PMS_P2;Temp;Humidity;BMP_temperature;BMP_pressure;BME280_temperature;BME280_humidity;BME280_pressure;Samples;Min_cycle;Max_cycle;Signal;HPM_P1;HPM_P2
2022/03/04 00:01:22;;;;;;;29.05;14.88;;;1.80;99.90;;;;;;5060886;28;20394;-71
2022/03/04 00:03:48;;;;;;;29.45;15.00;;;1.70;99.90;;;;;;5062839;28;20031;-72
2022/03/04 00:06:14;;;;;;;29.75;14.45;;;1.80;99.90;;;;;;5062096;28;20032;-71
2022/03/04 00:08:40;;;;;;;31.35;14.07;;;1.80;99.90;;;;;;5062449;28;20036;-72
2022/03/04 00:11:07;;;;;;;30.13;14.63;;;1.80;99.90;;;;;;5062930;28;20036;-72
2022/03/04 00:13:33;;;;;;;30.48;14.48;;;1.80;99.90;;;;;;5062798;28;20370;-72
2022/03/04 00:15:59;;;;;;;30.10;14.52;;;1.80;99.90;;;;;;5045733;28;20043;-72
2022/03/04 00:18:24;;;;;;;28.50;14.35;;;1.70;99.90;;;;;;5064848;28;20033;-72
2022/03/04 00:20:51;;;;;;;28.67;14.82;;;1.70;99.90;;;;;;5064705;28;20025;-72
2022/03/04 00:23:18;;;;;;;31.88;15.35;;;1.70;99.90;;;;;;5059682;28;20035;-71
2022/03/04 00:25:45;;;;;;;32.70;15.70;;;1.70;99.90;;;;;;5062698;28;20028;-71
2022/03/04 00:28:10;;;;;;;28.63;15.10;;;1.80;99.90;;;;;;5060689;28;20033;-71
2022/03/04 00:30:36;;;;;;;32.53;17.23;;;1.80;99.90;;;;;;5062587;28;20040;-71
2022/03/04 00:33:02;;;;;;;33.47;16.20;;;1.80;99.90;;;;;;5062330;28;20039;-72
2022/03/04 00:35:27;;;;;;;35.85;17.15;;;1.80;99.90;;;;;;5062544;28;20470;-72
2022/03/04 00:37:53;;;;;;;35.38;17.90;;;1.80;99.90;;;;;;5060978;28;20040;-71
2022/03/04 00:40:19;;;;;;;35.90;18.10;;;1.80;99.90;;;;;;5065743;28;20025;-72
2022/03/04 00:42:44;;;;;;;34.05;17.33;;;1.80;99.90;;;;;;5060548;28;20146;-72
2022/03/04 00:45:11;;;;;;;37.00;17.23;;;1.80;99.90;;;;;;5061321;28;20119;-72
2022/03/04 00:47:36;;;;;;;43.28;17.85;;;1.80;99.90;;;;;;5063496;28;20381;-72
2022/03/04 00:50:03;;;;;;;40.03;17.42;;;1.70;99.90;;;;;;5062702;28;20033;-72
2022/03/04 00:52:29;;;;;;;47.13;20.15;;;1.60;99.90;;;;;;5062727;28;20052;-73
2022/03/04 00:54:55;;;;;;;47.55;19.52;;;1.60;99.90;;;;;;5063723;28;20024;-72
2022/03/04 00:57:21;;;;;;;53.45;20.52;;;1.60;99.90;;;;;;5060543;28;20025;-72
2022/03/04 00:59:47;;;;;;;49.42;21.33;;;1.60;99.90;;;;;;5062534;28;20025;-72
2022/03/04 01:02:13;;;;;;;53.10;21.42;;;1.50;99.90;;;;;;5062604;28;20031;-71
2022/03/04 01:04:39;;;;;;;56.65;21.88;;;1.50;99.90;;;;;;5066450;28;20041;-72
2022/03/04 01:07:05;;;;;;;57.95;22.33;;;1.60;99.90;;;;;;5070416;28;20512;-71
2022/03/04 01:09:32;;;;;;;55.40;22.58;;;1.60;99.90;;;;;;5056384;28;20035;-71
2022/03/04 01:11:58;;;;;;;52.78;21.25;;;1.60;99.90;;;;;;5061366;28;20028;-73
2022/03/04 01:14:23;;;;;;;55.03;21.75;;;1.60;99.90;;;;;;5066908;28;20547;-72
2022/03/04 01:16:49;;;;;;;50.65;20.35;;;1.60;99.90;;;;;;5062932;28;20025;-72
2022/03/04 01:19:15;;;;;;;82.28;23.63;;;1.60;99.90;;;;;;5066291;28;20052;-71
2022/03/04 01:21:40;;;;;;;55.95;22.38;;;1.60;99.90;;;;;;5063788;28;20089;-72
2022/03/04 01:24:07;;;;;;;55.30;22.80;;;1.50;99.90;;;;;;5064023;28;20090;-72
2022/03/04 01:26:33;;;;;;;50.33;20.83;;;1.50;99.90;;;;;;5062151;28;20028;-71
2022/03/04 01:28:58;;;;;;;61.92;24.08;;;1.50;99.90;;;;;;5059002;28;20036;-72
2022/03/04 01:31:24;;;;;;;59.15;22.98;;;1.50;99.90;;;;;;5062562;28;20053;-72
2022/03/04 01:33:50;;;;;;;60.58;23.05;;;1.50;99.90;;;;;;5064261;28;20104;-72
2022/03/04 01:36:17;;;;;;;53.78;21.67;;;1.50;99.90;;;;;;5060558;28;20037;-71
2022/03/04 01:38:43;;;;;;;53.45;21.55;;;1.50;99.90;;;;;;5062300;28;20603;-72
2022/03/04 01:41:09;;;;;;;54.92;21.33;;;1.50;99.90;;;;;;5059996;28;20368;-71
2022/03/04 01:43:35;;;;;;;53.38;21.52;;;1.50;99.90;;;;;;5061143;28;20040;-71
2022/03/04 01:46:14;;;;;;;57.40;22.38;;;1.60;99.90;;;;;;5062605;28;20025;-72
2022/03/04 01:48:40;;;;;;;51.58;21.65;;;1.60;99.90;;;;;;5063430;28;20025;-71
2022/03/04 01:51:06;;;;;;;54.88;23.15;;;1.60;99.90;;;;;;5063386;28;20074;-71
2022/03/04 01:53:34;;;;;;;57.85;22.58;;;1.50;99.90;;;;;;5062120;28;20383;-71
2022/03/04 01:55:59;;;;;;;53.13;21.25;;;1.50;99.90;;;;;;5070975;28;20024;-74
2022/03/04 01:58:25;;;;;;;50.15;20.92;;;1.50;99.90;;;;;;5065417;28;20028;-70
2022/03/04 02:00:52;;;;;;;52.15;21.92;;;1.50;99.90;;;;;;5059031;28;20149;-70
2022/03/04 02:03:19;;;;;;;60.90;21.58;;;1.50;99.90;;;;;;5050772;28;20117;-70
2022/03/04 02:05:45;;;;;;;58.20;23.10;;;1.60;99.90;;;;;;5064455;28;20052;-71
2022/03/04 02:08:11;;;;;;;54.65;22.52;;;1.60;99.90;;;;;;5059496;28;20487;-72
2022/03/04 02:10:37;;;;;;;53.97;21.52;;;1.60;99.90;;;;;;5067742;28;20040;-72
2022/03/04 02:13:04;;;;;;;57.63;23.60;;;1.60;99.90;;;;;;5060852;28;20078;-71
2022/03/04 02:15:29;;;;;;;50.03;20.05;;;1.60;99.90;;;;;;5061197;28;20117;-71
2022/03/04 02:17:55;;;;;;;45.17;19.13;;;1.60;99.90;;;;;;5059332;28;20107;-72
2022/03/04 02:20:24;;;;;;;45.55;20.30;;;1.60;99.90;;;;;;5062450;28;20417;-73
2022/03/04 02:22:51;;;;;;;40.72;18.98;;;1.60;99.90;;;;;;5063640;28;20063;-72
2022/03/04 02:25:16;;;;;;;38.35;18.98;;;1.60;99.90;;;;;;5064668;28;20036;-72
2022/03/04 02:27:42;;;;;;;36.70;17.30;;;1.60;99.90;;;;;;5061237;28;20033;-72
2022/03/04 02:30:08;;;;;;;35.03;17.73;;;1.60;99.90;;;;;;5059342;28;20186;-71
2022/03/04 02:32:34;;;;;;;33.40;17.08;;;1.60;99.90;;;;;;5060744;28;20116;-71
2022/03/04 02:35:01;;;;;;;29.70;15.55;;;1.70;99.90;;;;;;5061425;28;20174;-71
2022/03/04 02:37:27;;;;;;;34.05;16.30;;;1.70;99.90;;;;;;5043741;28;20028;-71
2022/03/04 02:39:53;;;;;;;33.25;15.45;;;1.70;99.90;;;;;;5061976;28;20032;-72
2022/03/04 02:42:19;;;;;;;30.95;15.80;;;1.60;99.90;;;;;;5060134;28;20029;-72
2022/03/04 02:44:45;;;;;;;32.75;16.27;;;1.70;99.90;;;;;;5062121;28;20025;-71
2022/03/04 02:47:10;;;;;;;36.97;16.60;;;1.60;99.90;;;;;;5062488;28;20025;-72
2022/03/04 02:49:36;;;;;;;34.38;15.90;;;1.60;99.90;;;;;;5059592;28;20115;-71
2022/03/04 02:52:03;;;;;;;34.22;16.65;;;1.60;99.90;;;;;;5040127;28;20036;-72
2022/03/04 02:54:29;;;;;;;31.25;15.13;;;1.60;99.90;;;;;;5064162;28;20044;-73
2022/03/04 02:56:55;;;;;;;36.13;15.77;;;1.60;99.90;;;;;;5061338;28;20025;-72
2022/03/04 02:59:21;;;;;;;30.60;15.07;;;1.70;99.90;;;;;;5058971;28;20578;-71
2022/03/04 03:01:46;;;;;;;30.50;14.77;;;1.70;99.90;;;;;;5059982;28;20021;-71
2022/03/04 03:04:12;;;;;;;31.95;15.70;;;1.70;99.90;;;;;;5043034;28;20051;-71
2022/03/04 03:06:37;;;;;;;31.17;14.63;;;1.70;99.90;;;;;;5062544;28;20045;-72
2022/03/04 03:09:04;;;;;;;26.40;13.32;;;1.70;99.90;;;;;;5063109;28;20059;-72
2022/03/04 03:11:29;;;;;;;25.27;12.15;;;1.60;99.90;;;;;;5060055;28;20033;-71
2022/03/04 03:13:55;;;;;;;28.35;14.40;;;1.70;99.90;;;;;;5059865;28;20032;-72
2022/03/04 03:16:21;;;;;;;32.10;14.60;;;1.70;99.90;;;;;;5062783;28;20052;-71
2022/03/04 03:18:46;;;;;;;29.83;13.93;;;1.70;99.90;;;;;;5061278;28;20116;-72
2022/03/04 03:21:12;;;;;;;29.92;13.93;;;1.70;99.90;;;;;;5064747;28;20036;-72
2022/03/04 03:23:38;;;;;;;25.42;12.85;;;1.70;99.90;;;;;;5076128;28;20942;-71
2022/03/04 03:26:03;;;;;;;32.58;15.00;;;1.70;99.90;;;;;;5064774;28;20516;-72
2022/03/04 03:28:29;;;;;;;30.02;14.27;;;1.70;99.90;;;;;;5093942;22;20419;-70
2022/03/04 03:30:56;;;;;;;29.13;13.25;;;1.60;99.90;;;;;;5089110;28;20024;-69
2022/03/04 03:33:21;;;;;;;28.55;13.18;;;1.60;99.90;;;;;;5067882;28;20499;-69
2022/03/04 03:35:47;;;;;;;28.55;13.30;;;1.60;99.90;;;;;;5055533;28;20028;-69
2022/03/04 03:38:14;;;;;;;28.88;13.32;;;1.60;99.90;;;;;;5091499;28;20158;-69
2022/03/04 03:40:40;;;;;;;30.85;14.73;;;1.60;99.90;;;;;;5068424;28;20107;-69
2022/03/04 03:43:06;;;;;;;28.95;13.30;;;1.70;99.90;;;;;;5090269;28;20456;-69
2022/03/04 03:45:31;;;;;;;28.92;13.85;;;1.60;99.90;;;;;;5089534;28;20039;-69
2022/03/04 03:47:57;;;;;;;30.25;14.63;;;1.60;99.90;;;;;;5071885;28;20024;-69
2022/03/04 03:50:22;;;;;;;29.42;14.60;;;1.60;99.90;;;;;;5088483;28;20191;-69
2022/03/04 03:52:48;;;;;;;28.10;14.45;;;1.60;99.90;;;;;;5089901;28;20477;-70
2022/03/04 03:55:14;;;;;;;31.77;13.80;;;1.60;99.90;;;;;;5090995;28;20031;-69
2022/03/04 03:57:39;;;;;;;31.02;14.65;;;1.70;99.90;;;;;;5068741;28;20692;-70
2022/03/04 04:00:07;;;;;;;30.02;14.35;;;1.70;99.90;;;;;;5070762;28;20028;-69
2022/03/04 04:02:33;;;;;;;30.67;15.43;;;1.70;99.90;;;;;;5089265;28;20031;-70
2022/03/04 04:04:58;;;;;;;29.95;14.13;;;1.70;99.90;;;;;;5089649;28;20122;-70
2022/03/04 04:07:24;;;;;;;31.40;14.27;;;1.70;99.90;;;;;;5086764;28;20107;-69
2022/03/04 04:09:50;;;;;;;33.95;16.23;;;1.70;99.90;;;;;;5072250;28;20032;-69
2022/03/04 04:12:15;;;;;;;33.78;15.82;;;1.70;99.90;;;;;;5071185;28;23494;-69
2022/03/04 04:14:41;;;;;;;33.10;15.23;;;1.70;99.90;;;;;;5088971;28;20040;-69
2022/03/04 04:17:07;;;;;;;34.17;15.80;;;1.70;99.90;;;;;;5071842;28;20099;-70
2022/03/04 04:19:32;;;;;;;35.05;15.32;;;1.70;99.90;;;;;;5090305;28;20389;-70
2022/03/04 04:21:58;;;;;;;27.77;13.27;;;1.70;99.90;;;;;;5088863;28;20077;-69
2022/03/04 04:24:23;;;;;;;33.85;15.90;;;1.60;99.90;;;;;;5099499;28;20507;-70
2022/03/04 04:26:49;;;;;;;33.50;14.38;;;1.60;99.90;;;;;;5089902;28;20020;-70
2022/03/04 04:29:15;;;;;;;32.88;15.75;;;1.60;99.90;;;;;;5087774;28;20024;-69
2022/03/04 04:31:41;;;;;;;31.45;15.23;;;1.60;99.90;;;;;;5087430;28;20412;-69
2022/03/04 04:34:07;;;;;;;35.40;15.98;;;1.70;99.90;;;;;;5070802;28;20024;-69
2022/03/04 04:36:33;;;;;;;39.28;16.48;;;1.70;99.90;;;;;;5071784;28;20157;-69
2022/03/04 04:38:58;;;;;;;37.58;17.55;;;1.70;99.90;;;;;;5090096;28;20020;-70
2022/03/04 04:41:25;;;;;;;40.33;17.25;;;1.70;99.90;;;;;;5089639;28;20080;-70
2022/03/04 04:43:50;;;;;;;39.47;18.00;;;1.60;99.90;;;;;;5088634;28;20042;-70
2022/03/04 04:46:16;;;;;;;41.47;19.83;;;1.60;99.90;;;;;;5088907;28;20036;-69
2022/03/04 04:48:42;;;;;;;41.30;19.02;;;1.60;99.90;;;;;;5087776;28;20481;-70
2022/03/04 04:51:07;;;;;;;47.35;19.65;;;1.60;99.90;;;;;;5071451;28;20028;-69
2022/03/04 04:53:34;;;;;;;43.53;19.42;;;1.60;99.90;;;;;;5088947;28;20039;-70
2022/03/04 04:56:00;;;;;;;43.20;18.75;;;1.60;99.90;;;;;;5088554;28;20036;-70
2022/03/04 04:58:26;;;;;;;42.53;17.80;;;1.60;99.90;;;;;;5070926;28;20039;-69
2022/03/04 05:00:55;;;;;;;38.75;16.70;;;1.60;99.90;;;;;;5087363;28;20020;-69
2022/03/04 05:03:26;;;;;;;39.55;16.85;;;1.60;99.90;;;;;;5069535;28;20024;-69
2022/03/04 05:05:54;;;;;;;37.75;15.93;;;1.60;99.90;;;;;;5070122;28;20043;-69
2022/03/04 05:08:20;;;;;;;36.42;15.02;;;1.60;99.90;;;;;;5054638;28;20024;-69
2022/03/04 05:10:46;;;;;;;37.22;16.08;;;1.50;99.90;;;;;;5089129;28;20035;-69
2022/03/04 05:13:12;;;;;;;39.97;17.50;;;1.50;99.90;;;;;;5090058;28;20512;-70
2022/03/04 05:15:39;;;;;;;43.30;17.77;;;1.60;99.90;;;;;;5070237;28;20024;-69
2022/03/04 05:18:06;;;;;;;42.80;18.30;;;1.50;99.90;;;;;;5088870;28;20047;-69
2022/03/04 05:20:32;;;;;;;36.22;15.85;;;1.50;99.90;;;;;;5068577;28;20035;-69
2022/03/04 05:22:57;;;;;;;38.13;16.65;;;1.50;99.90;;;;;;5089333;28;20020;-69
2022/03/04 05:25:23;;;;;;;37.55;16.20;;;1.50;99.90;;;;;;5088570;28;20430;-70
2022/03/04 05:27:50;;;;;;;38.92;16.60;;;1.50;99.90;;;;;;5087611;28;20422;-69
2022/03/04 05:30:16;;;;;;;37.60;14.98;;;1.50;99.90;;;;;;5084903;28;20035;-69
2022/03/04 05:32:42;;;;;;;38.78;16.58;;;1.50;99.90;;;;;;5052494;28;20036;-69
2022/03/04 05:35:08;;;;;;;32.58;15.32;;;1.50;99.90;;;;;;5087677;28;20380;-69
2022/03/04 05:37:34;;;;;;;34.03;15.07;;;1.60;99.90;;;;;;5090021;28;20062;-69
2022/03/04 05:40:00;;;;;;;34.85;15.75;;;1.60;99.90;;;;;;5084814;28;20595;-69
2022/03/04 05:42:25;;;;;;;38.22;16.52;;;1.50;99.90;;;;;;5068738;28;20640;-70
2022/03/04 05:44:51;;;;;;;36.40;16.20;;;1.60;99.90;;;;;;5067303;28;20114;-69
2022/03/04 05:47:17;;;;;;;33.97;15.05;;;1.60;99.90;;;;;;5088960;28;20032;-70
2022/03/04 05:49:42;;;;;;;33.15;15.50;;;1.60;99.90;;;;;;5087993;28;20024;-69
2022/03/04 05:52:08;;;;;;;35.28;15.68;;;1.60;99.90;;;;;;5088153;28;20040;-69
2022/03/04 05:54:33;;;;;;;30.92;14.02;;;1.60;99.90;;;;;;5087972;28;20024;-69
2022/03/04 05:56:59;;;;;;;32.33;14.23;;;1.60;99.90;;;;;;5069969;28;20027;-70
2022/03/04 05:59:25;;;;;;;34.28;15.32;;;1.60;99.90;;;;;;5074577;28;20473;-69
2022/03/04 06:01:51;;;;;;;35.63;15.02;;;1.50;99.90;;;;;;5079337;28;20024;-69
2022/03/04 06:04:17;;;;;;;33.15;14.35;;;1.60;99.90;;;;;;5062749;28;20480;-68
2022/03/04 06:06:43;;;;;;;34.67;15.43;;;1.60;99.90;;;;;;5082283;28;20035;-68
2022/03/04 06:09:09;;;;;;;29.38;12.75;;;1.60;99.90;;;;;;5081232;28;20475;-68
2022/03/04 06:11:35;;;;;;;29.08;13.05;;;1.50;99.90;;;;;;5078798;28;20070;-69
2022/03/04 06:14:01;;;;;;;32.05;13.57;;;1.50;99.90;;;;;;5084455;28;20165;-69
2022/03/04 06:16:26;;;;;;;26.33;11.48;;;1.50;99.90;;;;;;5064116;28;20131;-69
2022/03/04 06:18:52;;;;;;;24.60;11.63;;;1.50;99.90;;;;;;5092383;28;20393;-69
2022/03/04 06:21:18;;;;;;;30.30;12.73;;;1.50;99.90;;;;;;5083779;28;20024;-68
2022/03/04 06:23:44;;;;;;;27.52;12.70;;;1.40;99.90;;;;;;5067367;28;20032;-68
2022/03/04 06:26:10;;;;;;;28.75;13.30;;;1.40;99.90;;;;;;5084455;28;20394;-68
2022/03/04 06:28:36;;;;;;;28.33;12.73;;;1.40;99.90;;;;;;5085913;28;20039;-68
2022/03/04 06:31:02;;;;;;;25.20;11.95;;;1.40;99.90;;;;;;5068264;28;20043;-68
2022/03/04 06:33:32;;;;;;;24.80;11.40;;;1.40;99.90;;;;;;5086393;28;20036;-69
2022/03/04 06:36:05;;;;;;;25.77;11.30;;;1.40;99.90;;;;;;5069997;28;20020;-68
2022/03/04 06:38:32;;;;;;;23.35;11.05;;;1.40;99.90;;;;;;5088065;28;20024;-69
2022/03/04 06:40:58;;;;;;;24.88;11.45;;;1.30;99.90;;;;;;5086289;28;20024;-69
2022/03/04 06:43:24;;;;;;;22.60;10.77;;;1.30;99.90;;;;;;5088115;28;20184;-69
2022/03/04 06:45:49;;;;;;;22.83;10.93;;;1.30;99.90;;;;;;5070710;28;20107;-69
2022/03/04 06:48:18;;;;;;;19.38;9.55;;;1.30;99.90;;;;;;5070964;28;20032;-70
2022/03/04 06:50:44;;;;;;;20.30;10.30;;;1.30;99.90;;;;;;5085703;28;20028;-70
2022/03/04 06:53:10;;;;;;;21.05;9.60;;;1.20;99.90;;;;;;5066640;28;20161;-70
2022/03/04 06:55:36;;;;;;;19.05;9.55;;;1.20;99.90;;;;;;5086229;28;20106;-70
2022/03/04 06:58:05;;;;;;;18.27;9.02;;;1.10;99.90;;;;;;5084175;28;20032;-70
2022/03/04 07:00:31;;;;;;;17.85;8.98;;;1.20;99.90;;;;;;5082830;28;20610;-69
2022/03/04 07:02:57;;;;;;;19.77;9.60;;;1.20;99.90;;;;;;5087152;28;20028;-69
2022/03/04 07:05:23;;;;;;;19.35;9.05;;;1.20;99.90;;;;;;5087588;28;20036;-70
2022/03/04 07:07:54;;;;;;;17.52;8.63;;;1.20;99.90;;;;;;5084675;28;20032;-69
2022/03/04 07:10:20;;;;;;;17.85;8.68;;;1.20;99.90;;;;;;5086055;28;20516;-69
2022/03/04 07:12:46;;;;;;;19.70;9.40;;;1.10;99.90;;;;;;5088727;28;20306;-68
2022/03/04 07:15:14;;;;;;;20.73;9.70;;;1.20;99.90;;;;;;5052978;28;20051;-68
2022/03/04 07:17:40;;;;;;;18.73;8.38;;;1.20;99.90;;;;;;5069768;28;20074;-69
2022/03/04 07:20:08;;;;;;;18.73;9.07;;;1.20;99.90;;;;;;5070509;28;20027;-69
2022/03/04 07:22:35;;;;;;;22.23;9.55;;;1.30;99.90;;;;;;5086821;28;20093;-69
2022/03/04 07:25:06;;;;;;;21.98;10.38;;;1.30;99.90;;;;;;5062695;28;20032;-70
2022/03/04 07:27:36;;;;;;;21.60;9.90;;;1.30;99.90;;;;;;5095571;28;20028;-71
2022/03/04 07:30:04;;;;;;;16.23;8.32;;;1.30;99.90;;;;;;5065018;28;20032;-72
2022/03/04 07:32:32;;;;;;;20.88;9.02;;;1.30;99.90;;;;;;5065614;28;20032;-69
2022/03/04 07:34:58;;;;;;;16.35;7.75;;;1.30;99.90;;;;;;5085501;28;20546;-69
2022/03/04 07:37:24;;;;;;;15.85;7.85;;;1.30;99.90;;;;;;5063765;28;20035;-70
2022/03/04 07:39:51;;;;;;;14.88;7.60;;;1.30;99.90;;;;;;5081965;28;20024;-70
2022/03/04 07:42:17;;;;;;;15.45;8.52;;;1.30;99.90;;;;;;5073572;28;20377;-70
2022/03/04 07:44:44;;;;;;;16.17;8.30;;;1.40;99.90;;;;;;5088705;28;20024;-71
2022/03/04 07:47:09;;;;;;;18.60;8.68;;;1.40;99.90;;;;;;5089154;28;20512;-70
2022/03/04 07:49:35;;;;;;;15.68;8.48;;;1.40;99.90;;;;;;5085938;28;20024;-69
2022/03/04 07:52:01;;;;;;;19.23;8.93;;;1.40;99.90;;;;;;5083202;28;20044;-70
2022/03/04 07:54:26;;;;;;;19.27;8.38;;;1.40;99.90;;;;;;5084555;28;20082;-69
2022/03/04 07:56:52;;;;;;;16.67;7.82;;;1.50;99.90;;;;;;5090215;28;20070;-70
2022/03/04 07:59:19;;;;;;;15.07;7.05;;;1.50;99.90;;;;;;5064381;28;20477;-70
2022/03/04 08:01:45;;;;;;;15.70;8.35;;;1.60;99.90;;;;;;5070080;28;20884;-70
2022/03/04 08:04:11;;;;;;;14.77;7.85;;;1.70;99.90;;;;;;5087563;28;20111;-69
2022/03/04 08:06:38;;;;;;;14.93;7.57;;;1.60;99.90;;;;;;5054656;28;20032;-69
2022/03/04 08:09:04;;;;;;;17.05;8.10;;;1.60;99.90;;;;;;5090462;28;20031;-69
2022/03/04 08:11:30;;;;;;;15.90;7.75;;;1.60;99.90;;;;;;5092296;28;20046;-69
2022/03/04 08:13:59;;;;;;;14.65;7.20;;;1.70;99.90;;;;;;5091274;28;20544;-68
2022/03/04 08:16:25;;;;;;;15.00;7.32;;;1.70;99.90;;;;;;5097822;28;20028;-69
2022/03/04 08:18:52;;;;;;;18.30;8.60;;;1.70;99.90;;;;;;5059182;28;20118;-68
2022/03/04 08:21:18;;;;;;;15.73;7.82;;;1.70;99.90;;;;;;5092410;28;20040;-71
2022/03/04 08:23:44;;;;;;;15.30;7.28;;;1.70;99.90;;;;;;5092145;28;20485;-69
2022/03/04 08:26:09;;;;;;;14.18;7.10;;;1.80;99.90;;;;;;5070370;28;20032;-68
2022/03/04 08:28:35;;;;;;;14.07;6.95;;;1.80;99.90;;;;;;5085579;28;20064;-68
2022/03/04 08:31:10;;;;;;;17.13;7.88;;;1.80;99.90;;;;;;5087842;28;20466;-68
2022/03/04 08:33:38;;;;;;;18.70;8.10;;;1.90;99.90;;;;;;5071464;28;20078;-69
2022/03/04 08:36:05;;;;;;;15.75;8.32;;;1.90;99.90;;;;;;5053321;28;20024;-68
2022/03/04 08:38:31;;;;;;;14.98;7.68;;;1.90;99.90;;;;;;5091738;28;20024;-69
2022/03/04 08:40:58;;;;;;;15.32;8.13;;;1.90;99.90;;;;;;5073354;28;20394;-69
2022/03/04 08:43:24;;;;;;;14.20;7.10;;;2.00;99.90;;;;;;5094259;28;20027;-69
2022/03/04 08:45:49;;;;;;;18.88;8.00;;;2.00;99.90;;;;;;5073642;28;20032;-69
2022/03/04 08:48:15;;;;;;;15.88;7.63;;;2.00;99.90;;;;;;5090310;28;20039;-68
2022/03/04 08:50:41;;;;;;;15.32;7.30;;;2.00;99.90;;;;;;5076443;28;20024;-68
2022/03/04 08:53:09;;;;;;;14.07;7.20;;;2.00;99.90;;;;;;5091940;28;20031;-69
2022/03/04 08:55:35;;;;;;;12.43;6.43;;;2.00;99.90;;;;;;5072726;28;20027;-68
2022/03/04 08:58:01;;;;;;;14.65;7.70;;;2.10;99.90;;;;;;5089398;28;20478;-69
2022/03/04 09:00:30;;;;;;;14.32;7.55;;;2.00;99.90;;;;;;5084340;28;20107;-69
2022/03/04 09:02:56;;;;;;;14.43;7.25;;;2.00;99.90;;;;;;5070737;28;20016;-69
2022/03/04 09:05:22;;;;;;;14.93;7.32;;;2.10;99.90;;;;;;5072758;28;20099;-69
2022/03/04 09:07:48;;;;;;;15.35;7.38;;;2.20;99.90;;;;;;5055476;28;20119;-69
2022/03/04 09:10:14;;;;;;;13.70;7.55;;;2.20;99.90;;;;;;5089154;28;20507;-68
2022/03/04 09:12:41;;;;;;;13.48;7.55;;;2.20;99.90;;;;;;5083437;28;20032;-69
2022/03/04 09:15:07;;;;;;;17.20;7.72;;;2.30;99.90;;;;;;5089771;28;20024;-68
2022/03/04 09:17:34;;;;;;;13.82;7.03;;;2.40;99.90;;;;;;5089503;28;20058;-69
2022/03/04 09:20:02;;;;;;;13.75;7.13;;;2.50;99.90;;;;;;5086528;28;20028;-68
2022/03/04 09:22:28;;;;;;;13.45;7.18;;;2.60;99.90;;;;;;5090124;28;20020;-68
2022/03/04 09:24:54;;;;;;;11.93;6.32;;;2.60;99.90;;;;;;5072518;28;20027;-68
2022/03/04 09:27:20;;;;;;;12.25;6.72;;;2.80;99.90;;;;;;5055226;28;20120;-69
2022/03/04 09:29:45;;;;;;;13.60;6.63;;;2.90;99.90;;;;;;5104418;22;20048;-72
2022/03/04 09:32:11;;;;;;;12.10;6.25;;;2.90;99.90;;;;;;5070791;28;20090;-73
2022/03/04 09:34:37;;;;;;;13.73;7.35;;;2.90;99.90;;;;;;5074171;28;20020;-71
2022/03/04 09:37:04;;;;;;;12.70;6.65;;;2.90;99.90;;;;;;5073026;28;20107;-70
2022/03/04 09:39:29;;;;;;;16.85;7.60;;;3.00;99.90;;;;;;5046762;28;20035;-71
2022/03/04 09:41:55;;;;;;;14.75;7.00;;;3.00;99.90;;;;;;5037355;28;20489;-72
2022/03/04 09:44:21;;;;;;;14.90;7.95;;;3.00;99.90;;;;;;5054236;28;20414;-72
2022/03/04 09:46:47;;;;;;;18.23;8.02;;;3.00;99.90;;;;;;5055986;28;20036;-70
2022/03/04 09:49:17;;;;;;;12.32;6.57;;;3.00;99.90;;;;;;5037465;28;20115;-72
2022/03/04 09:51:43;;;;;;;14.07;7.77;;;3.10;99.90;;;;;;5038407;28;20123;-72
2022/03/04 09:54:09;;;;;;;13.27;6.93;;;3.00;99.90;;;;;;5054909;28;20041;-72
2022/03/04 09:56:35;;;;;;;12.85;6.50;;;3.00;99.90;;;;;;5034554;28;20386;-72
2022/03/04 09:59:01;;;;;;;18.55;10.73;;;3.00;99.90;;;;;;5033132;28;20092;-71
2022/03/04 10:01:27;;;;;;;19.70;10.20;;;2.90;99.90;;;;;;5040623;28;20029;-70
2022/03/04 10:03:55;;;;;;;23.40;11.52;;;3.00;99.90;;;;;;5038266;28;20028;-72
2022/03/04 10:06:22;;;;;;;19.95;10.52;;;3.00;99.90;;;;;;5037954;28;20131;-73
2022/03/04 10:08:53;;;;;;;22.02;12.13;;;3.00;99.90;;;;;;5054712;28;20024;-71
2022/03/04 10:11:38;;;;;;;;;;;3.00;99.90;;;;;;5042800;28;20024;-69
2022/03/04 10:14:09;;;;;;;17.10;9.23;;;3.10;99.90;;;;;;5053311;28;20270;-72
2022/03/04 10:16:41;;;;;;;19.50;9.80;;;3.10;99.90;;;;;;5058871;28;20033;-71
2022/03/04 10:19:15;;;;;;;19.48;9.18;;;3.10;99.90;;;;;;5055709;28;20051;-71
2022/03/04 10:21:56;;;;;;;52.13;16.25;;;3.20;99.90;;;;;;5057788;28;20457;-70
2022/03/04 10:24:33;;;;;;;20.50;10.40;;;3.30;99.90;;;;;;5051098;28;20676;-70
2022/03/04 10:27:08;;;;;;;21.10;11.05;;;3.50;99.90;;;;;;5026956;28;20521;-70
2022/03/04 10:29:43;;;;;;;17.20;9.15;;;3.50;99.90;;;;;;5049815;28;20045;-70
2022/03/04 10:32:24;;;;;;;15.70;9.50;;;3.50;99.90;;;;;;5041912;28;20046;-69
2022/03/04 10:35:04;;;;;;;21.73;11.57;;;3.50;99.90;;;;;;5061618;28;20040;-69
2022/03/04 10:37:52;;;;;;;18.30;10.18;;;3.60;99.90;;;;;;5052064;28;20057;-68
2022/03/04 10:40:22;;;;;;;18.23;9.15;;;3.70;99.90;;;;;;5055551;28;20025;-72
2022/03/04 10:42:53;;;;;;;18.55;10.02;;;3.80;99.90;;;;;;5037747;28;20029;-71
2022/03/04 10:45:25;;;;;;;17.60;9.98;;;4.00;99.90;;;;;;5039781;28;20036;-70
2022/03/04 10:48:13;;;;;;;20.17;11.25;;;4.20;99.90;;;;;;5052995;28;20021;-71
2022/03/04 10:50:43;;;;;;;19.25;12.23;;;4.50;99.90;;;;;;5044615;28;20108;-70
2022/03/04 10:53:14;;;;;;;15.95;9.45;;;4.70;99.90;;;;;;5043453;28;20037;-71
2022/03/04 10:55:49;;;;;;;;;;;5.50;99.90;;;;;;5044282;28;20033;-71
2022/03/04 10:58:17;;;;;;;17.20;9.05;;;6.40;99.90;;;;;;5042504;28;19915;-71
2022/03/04 11:00:49;;;;;;;13.38;8.30;;;6.60;99.90;;;;;;5026501;28;20439;-72
2022/03/04 11:03:26;;;;;;;11.70;6.55;;;6.70;99.90;;;;;;5029192;28;20051;-71
2022/03/04 11:05:55;;;;;;;12.30;7.55;;;7.00;99.90;;;;;;5026166;28;20082;-70
2022/03/04 11:08:22;;;;;;;14.77;7.68;;;7.10;99.90;;;;;;5027146;28;20072;-70
2022/03/04 11:10:49;;;;;;;11.38;6.82;;;7.10;99.90;;;;;;5023718;28;20479;-71
2022/03/04 11:13:15;;;;;;;12.65;7.82;;;7.60;99.90;;;;;;5037758;28;20036;-68
2022/03/04 11:15:42;;;;;;;16.52;10.27;;;8.20;99.90;;;;;;5027541;28;20044;-72
2022/03/04 11:18:14;;;;;;;16.52;8.98;;;8.40;97.00;;;;;;5043628;28;20032;-70
2022/03/04 11:20:43;;;;;;;18.75;11.20;;;8.30;98.80;;;;;;5041167;28;20433;-69
2022/03/04 11:23:10;;;;;;;16.83;11.35;;;7.90;99.80;;;;;;5043888;28;20060;-69
2022/03/04 11:25:38;;;;;;;13.35;9.40;;;8.80;99.90;;;;;;5028738;28;20048;-70
2022/03/04 11:28:14;;;;;;;17.63;9.85;;;9.90;94.10;;;;;;5024970;28;20032;-72
2022/03/04 11:30:47;;;;;;;12.75;9.38;;;10.10;86.90;;;;;;5044792;28;20032;-70
2022/03/04 11:33:16;;;;;;;12.10;7.22;;;10.10;88.80;;;;;;5016544;28;20091;-70
2022/03/04 11:35:41;;;;;;;14.68;9.45;;;11.00;85.70;;;;;;5012166;28;20032;-70
2022/03/04 11:38:11;;;;;;;14.70;10.00;;;11.80;75.30;;;;;;5019993;28;20028;-72
2022/03/04 11:40:48;;;;;;;17.42;12.00;;;11.40;70.40;;;;;;5053925;28;20051;-68
2022/03/04 11:43:18;;;;;;;17.42;11.45;;;10.50;73.00;;;;;;5059124;28;20028;-70
2022/03/04 11:46:01;;;;;;;17.73;11.63;;;10.20;77.50;;;;;;5040134;28;20505;-70
2022/03/04 11:48:28;;;;;;;16.42;10.63;;;10.70;79.10;;;;;;5044625;28;20292;-72
2022/03/04 11:50:55;;;;;;;16.48;11.20;;;11.00;72.90;;;;;;5050669;28;20028;-72
2022/03/04 11:53:23;;;;;;;15.80;11.60;;;10.70;71.10;;;;;;5023405;28;20027;-73
2022/03/04 11:56:10;;;;;;;16.52;10.77;;;10.10;73.70;;;;;;5038494;28;20040;-72
2022/03/04 11:58:54;;;;;;;18.27;10.70;;;9.50;76.60;;;;;;5036894;28;20103;-73
2022/03/04 12:01:27;;;;;;;17.60;10.35;;;8.80;82.10;;;;;;5061493;28;20027;-73
2022/03/04 12:04:07;;;;;;;16.08;10.98;;;8.30;86.50;;;;;;5042250;28;20024;-71
2022/03/04 12:06:33;;;;;;;16.97;10.17;;;7.80;92.70;;;;;;5028728;28;20033;-71
2022/03/04 12:09:26;;;;;;;17.15;10.05;;;7.60;97.30;;;;;;5042016;28;20408;-72
2022/03/04 12:12:20;;;;;;;14.02;8.57;;;7.40;98.30;;;;;;5018241;28;20033;-72
2022/03/04 12:14:50;;;;;;;14.75;8.13;;;7.20;99.80;;;;;;5045975;28;20028;-72
2022/03/04 12:17:20;;;;;;;12.82;8.10;;;7.00;99.90;;;;;;5015296;28;20036;-72
2022/03/04 12:19:48;;;;;;;14.60;7.43;;;6.70;99.90;;;;;;5028501;28;20040;-72
2022/03/04 12:22:16;;;;;;;14.82;7.50;;;6.60;99.90;;;;;;5032369;28;20550;-72
2022/03/04 12:25:01;;;;;;;11.57;6.88;;;6.30;99.90;;;;;;5029806;28;20052;-74
2022/03/04 12:27:44;;;;;;;11.93;5.57;;;6.20;99.90;;;;;;5046875;28;20032;-74
2022/03/04 12:30:23;;;;;;;12.18;6.60;;;6.10;99.90;;;;;;5021469;28;20024;-73
2022/03/04 12:32:53;;;;;;;11.52;6.55;;;5.90;99.90;;;;;;5049573;28;20107;-72
2022/03/04 12:35:20;;;;;;;9.77;5.32;;;5.80;99.90;;;;;;5039698;28;20032;-71
2022/03/04 12:37:46;;;;;;;11.93;5.20;;;5.70;99.90;;;;;;5035563;28;20025;-71
2022/03/04 12:40:13;;;;;;;10.73;5.50;;;5.60;99.90;;;;;;5057369;28;20494;-72
2022/03/04 12:42:39;;;;;;;11.50;6.07;;;5.60;99.90;;;;;;5057500;28;20127;-71